createdAt,value
2023-08-14T00:00:39.798Z,19.80
2023-08-14T00:03:31.339Z,19.80
2023-08-14T00:06:03.635Z,19.80
2023-08-14T00:08:35.147Z,19.73
2023-08-14T00:11:06.710Z,19.58
2023-08-14T00:13:53.323Z,19.32
2023-08-14T00:16:26.169Z,19.32
2023-08-14T00:18:57.785Z,19.39
2023-08-14T00:21:29.950Z,19.42
2023-08-14T00:24:01.617Z,19.42
2023-08-14T00:26:33.144Z,19.43
2023-08-14T00:29:05.033Z,19.49
2023-08-14T00:31:36.707Z,19.54
2023-08-14T00:34:08.259Z,19.53
2023-08-14T00:36:39.746Z,19.39
2023-08-14T00:39:11.709Z,19.36
2023-08-14T00:41:43.349Z,19.38
2023-08-14T00:44:15.604Z,19.34
2023-08-14T00:46:47.244Z,19.31
2023-08-14T00:49:19.103Z,19.25
2023-08-14T00:51:50.867Z,19.22
2023-08-14T00:54:22.538Z,19.25
2023-08-14T00:56:54.053Z,19.27
2023-08-14T00:59:25.956Z,19.12
2023-08-14T01:01:58.336Z,18.96
2023-08-14T01:04:30.051Z,18.96
2023-08-14T01:07:04.353Z,18.97
2023-08-14T01:09:36.514Z,19.00
2023-08-14T01:12:16.249Z,19.04
2023-08-14T01:14:53.039Z,19.03
2023-08-14T01:17:31.790Z,19.02
2023-08-14T01:20:06.037Z,18.94
2023-08-14T01:23:05.710Z,18.87
2023-08-14T01:25:39.371Z,18.91
2023-08-14T01:28:13.038Z,18.95
2023-08-14T01:30:45.640Z,18.98
2023-08-14T01:33:17.576Z,19.02
2023-08-14T01:35:54.820Z,19.07
2023-08-14T01:38:36.284Z,19.05
2023-08-14T01:41:13.418Z,18.87
2023-08-14T01:43:50.093Z,18.87
2023-08-14T01:46:22.733Z,18.93
2023-08-14T01:48:55.971Z,19.04
2023-08-14T01:51:28.713Z,19.11
2023-08-14T01:54:01.830Z,19.14
2023-08-14T01:56:33.345Z,19.03
2023-08-14T01:59:05.110Z,18.77
2023-08-14T02:01:36.765Z,18.77
2023-08-14T02:04:10.283Z,18.89
2023-08-14T02:06:41.701Z,18.99
2023-08-14T02:09:13.292Z,19.05
2023-08-14T02:11:44.824Z,19.08
2023-08-14T02:14:16.505Z,19.06
2023-08-14T02:16:48.008Z,19.07
2023-08-14T02:19:19.541Z,19.06
2023-08-14T02:21:51.943Z,18.95
2023-08-14T02:24:23.607Z,18.85
2023-08-14T02:26:55.113Z,18.82
2023-08-14T02:29:26.560Z,18.69
2023-08-14T02:31:58.029Z,18.65
2023-08-14T02:34:44.558Z,18.67
2023-08-14T02:37:17.694Z,18.67
2023-08-14T02:39:49.830Z,18.68
2023-08-14T02:42:22.675Z,18.59
2023-08-14T02:44:55.079Z,18.49
2023-08-14T02:47:26.502Z,18.55
2023-08-14T02:49:58.120Z,18.62
2023-08-14T02:52:29.614Z,18.65
2023-08-14T02:55:01.276Z,18.60
2023-08-14T02:57:32.713Z,18.53
2023-08-14T03:00:06.422Z,18.52
2023-08-14T03:02:38.123Z,18.53
2023-08-14T03:05:10.542Z,18.37
2023-08-14T03:07:42.069Z,18.34
2023-08-14T03:10:13.701Z,18.32
2023-08-14T03:12:45.522Z,18.36
2023-08-14T03:15:17.190Z,18.44
2023-08-14T03:17:48.870Z,18.46
2023-08-14T03:20:20.628Z,18.43
2023-08-14T03:22:52.388Z,18.25
2023-08-14T03:25:24.293Z,18.23
2023-08-14T03:27:55.907Z,18.33
2023-08-14T03:30:27.508Z,18.32
2023-08-14T03:32:59.196Z,18.30
2023-08-14T03:35:30.794Z,18.31
2023-08-14T03:38:02.340Z,18.42
2023-08-14T03:40:35.588Z,18.25
2023-08-14T03:43:07.229Z,18.32
2023-08-14T03:45:38.756Z,18.48
2023-08-14T03:48:10.301Z,18.67
2023-08-14T03:50:41.858Z,18.62
2023-08-14T03:53:13.534Z,18.40
2023-08-14T03:55:46.091Z,18.42
2023-08-14T03:58:19.294Z,18.52
2023-08-14T04:00:50.867Z,18.62
2023-08-14T04:03:23.208Z,18.64
2023-08-14T04:05:58.447Z,18.49
2023-08-14T04:08:30.209Z,18.35
2023-08-14T04:11:01.802Z,18.11
2023-08-14T04:13:33.264Z,18.08
2023-08-14T04:16:05.247Z,18.30
2023-08-14T04:18:38.162Z,18.63
2023-08-14T04:21:09.730Z,18.84
2023-08-14T04:23:41.308Z,18.93
2023-08-14T04:26:12.904Z,18.83
2023-08-14T04:28:44.436Z,18.74
2023-08-14T04:31:15.881Z,18.72
2023-08-14T04:33:47.357Z,18.64
2023-08-14T04:36:18.962Z,18.58
2023-08-14T04:38:50.594Z,18.41
2023-08-14T04:41:22.185Z,18.22
2023-08-14T04:43:53.948Z,18.26
2023-08-14T04:46:44.851Z,18.37
2023-08-14T04:49:25.415Z,18.55
2023-08-14T04:51:57.237Z,18.95
2023-08-14T04:54:29.100Z,19.17
2023-08-14T04:57:00.563Z,19.21
2023-08-14T04:59:32.375Z,19.21
2023-08-14T05:02:05.237Z,19.20
2023-08-14T05:04:36.821Z,19.09
2023-08-14T05:07:08.544Z,19.00
2023-08-14T05:09:40.171Z,19.03
2023-08-14T05:12:12.373Z,19.28
2023-08-14T05:14:43.985Z,19.46
2023-08-14T05:17:15.624Z,19.52
2023-08-14T05:19:47.387Z,19.56
2023-08-14T05:22:21.039Z,19.45
2023-08-14T05:24:52.772Z,19.44
2023-08-14T05:27:25.410Z,19.76
2023-08-14T05:30:05.751Z,20.18
2023-08-14T05:32:37.751Z,20.37
2023-08-14T05:35:10.285Z,20.48
2023-08-14T05:37:42.913Z,20.60
2023-08-14T05:40:15.908Z,20.73
2023-08-14T05:42:47.629Z,20.79
2023-08-14T05:45:19.342Z,20.84
2023-08-14T05:47:51.020Z,20.91
2023-08-14T05:50:23.187Z,20.90
2023-08-14T05:52:55.824Z,20.93
2023-08-14T05:55:27.338Z,21.18
2023-08-14T05:57:58.978Z,21.33
2023-08-14T06:00:31.232Z,21.30
2023-08-14T06:03:03.010Z,21.46
2023-08-14T06:05:35.200Z,21.61
2023-08-14T06:08:08.273Z,21.48
2023-08-14T06:10:40.724Z,21.30
2023-08-14T06:13:12.707Z,21.34
2023-08-14T06:15:44.196Z,21.39
2023-08-14T06:18:15.792Z,21.34
2023-08-14T06:20:47.293Z,21.42
2023-08-14T06:23:20.366Z,21.48
2023-08-14T06:25:52.302Z,21.54
2023-08-14T06:28:24.230Z,21.54
2023-08-14T06:30:55.898Z,21.75
2023-08-14T06:33:27.454Z,21.94
2023-08-14T06:35:59.077Z,21.89
2023-08-14T06:38:31.064Z,21.90
2023-08-14T06:41:02.841Z,22.00
2023-08-14T06:43:35.590Z,23.09
2023-08-14T06:46:07.208Z,24.11
2023-08-14T06:48:38.738Z,25.14
2023-08-14T06:51:10.302Z,25.95
2023-08-14T06:53:42.047Z,28.36
2023-08-14T06:56:13.738Z,28.61
2023-08-14T06:58:45.640Z,30.20
2023-08-14T07:01:17.792Z,31.69
2023-08-14T07:03:50.069Z,32.89
2023-08-14T07:06:22.189Z,33.99
2023-08-14T07:08:53.744Z,34.97
2023-08-14T07:11:25.564Z,36.39
2023-08-14T07:13:57.747Z,36.85
2023-08-14T07:16:29.217Z,36.42
2023-08-14T07:19:01.326Z,34.60
2023-08-14T07:21:32.917Z,33.21
2023-08-14T07:24:05.133Z,33.59
2023-08-14T07:26:36.743Z,32.35
2023-08-14T07:29:08.548Z,32.16
2023-08-14T07:31:40.087Z,32.12
2023-08-14T07:34:11.981Z,32.26
2023-08-14T07:36:43.620Z,31.94
2023-08-14T07:39:15.299Z,32.13
2023-08-14T07:41:46.967Z,32.60
2023-08-14T07:44:18.610Z,34.72
2023-08-14T07:46:50.125Z,36.57
2023-08-14T07:49:21.996Z,37.79
2023-08-14T07:51:53.595Z,38.51
2023-08-14T07:54:25.501Z,38.96
2023-08-14T07:56:57.141Z,38.54
2023-08-14T07:59:28.738Z,38.14
2023-08-14T08:02:00.488Z,38.76
2023-08-14T08:04:39.534Z,39.11
2023-08-14T08:07:11.776Z,40.93
2023-08-14T08:09:43.583Z,41.32
2023-08-14T08:12:16.581Z,41.03
2023-08-14T08:14:48.663Z,40.50
2023-08-14T08:17:20.211Z,40.54
2023-08-14T08:19:52.836Z,41.04
2023-08-14T08:22:24.573Z,41.02
2023-08-14T08:24:56.506Z,41.05
2023-08-14T08:27:28.336Z,40.70
2023-08-14T08:30:00.001Z,41.18
2023-08-14T08:32:31.528Z,41.05
2023-08-14T08:35:03.232Z,40.70
2023-08-14T08:37:35.065Z,40.76
2023-08-14T08:40:09.649Z,41.10
2023-08-14T08:42:42.081Z,42.24
2023-08-14T08:45:19.145Z,43.27
2023-08-14T08:47:53.424Z,43.19
2023-08-14T08:50:26.739Z,43.26
2023-08-14T08:52:58.781Z,42.69
2023-08-14T08:55:30.692Z,42.02
2023-08-14T08:58:04.789Z,41.60
2023-08-14T09:00:36.616Z,40.57
2023-08-14T09:03:08.992Z,38.99
2023-08-14T09:05:41.645Z,38.65
2023-08-14T09:08:13.466Z,39.41
2023-08-14T09:10:45.049Z,40.53
2023-08-14T09:13:17.533Z,41.70
2023-08-14T09:15:56.813Z,41.61
2023-08-14T09:18:28.654Z,41.18
2023-08-14T09:21:00.510Z,40.05
2023-08-14T09:23:35.903Z,38.63
2023-08-14T09:26:07.859Z,37.49
2023-08-14T09:28:40.545Z,36.44
2023-08-14T09:31:14.846Z,35.87
2023-08-14T09:33:47.567Z,35.55
2023-08-14T09:36:19.291Z,35.12
2023-08-14T09:38:53.979Z,34.13
2023-08-14T09:41:28.303Z,34.02
2023-08-14T09:44:03.500Z,34.15
2023-08-14T09:46:35.422Z,33.93
2023-08-14T09:49:09.559Z,34.02
2023-08-14T09:51:43.543Z,33.64
2023-08-14T09:54:15.204Z,33.92
2023-08-14T09:56:48.449Z,34.46
2023-08-14T09:59:20.233Z,34.39
2023-08-14T10:01:51.919Z,33.90
2023-08-14T10:04:24.500Z,33.27
2023-08-14T10:06:57.282Z,32.89
2023-08-14T10:09:33.001Z,32.60
2023-08-14T10:12:08.926Z,32.41
2023-08-14T10:14:43.531Z,32.08
2023-08-14T10:17:23.498Z,31.94
2023-08-14T10:19:54.525Z,31.78
2023-08-14T10:22:26.882Z,31.60
2023-08-14T10:24:58.498Z,31.51
2023-08-14T10:27:31.902Z,31.41
2023-08-14T10:30:04.939Z,31.53
2023-08-14T10:32:38.260Z,32.08
2023-08-14T10:35:12.943Z,31.65
2023-08-14T10:37:56.312Z,31.35
2023-08-14T10:40:36.937Z,31.08
2023-08-14T10:43:09.169Z,30.60
2023-08-14T10:45:41.007Z,30.28
2023-08-14T10:48:14.135Z,30.04
2023-08-14T10:50:49.510Z,29.68
2023-08-14T10:53:21.310Z,29.36
2023-08-14T10:55:54.126Z,29.24
2023-08-14T10:58:48.539Z,29.15
2023-08-14T11:01:20.897Z,28.94
2023-08-14T11:04:06.337Z,28.90
2023-08-14T11:07:09.898Z,29.03
2023-08-14T11:09:42.897Z,29.54
2023-08-14T11:12:14.637Z,29.95
2023-08-14T11:14:46.569Z,29.80
2023-08-14T11:17:18.616Z,29.56
2023-08-14T11:19:51.489Z,29.72
2023-08-14T11:22:24.865Z,30.34
2023-08-14T11:24:56.827Z,30.53
2023-08-14T11:27:28.435Z,30.59
2023-08-14T11:30:02.465Z,30.67
2023-08-14T11:32:35.896Z,30.74
2023-08-14T11:35:09.043Z,31.20
2023-08-14T11:37:40.930Z,31.86
2023-08-14T11:40:14.540Z,32.21
2023-08-14T11:42:46.585Z,31.93
2023-08-14T11:45:18.167Z,31.72
2023-08-14T11:47:51.463Z,31.44
2023-08-14T11:50:23.599Z,31.26
2023-08-14T11:52:56.372Z,31.32
2023-08-14T11:55:28.903Z,31.30
2023-08-14T11:58:04.029Z,31.06
2023-08-14T12:00:35.830Z,30.93
2023-08-14T12:03:09.808Z,30.97
2023-08-14T12:05:42.289Z,31.20
2023-08-14T12:08:15.426Z,31.08
2023-08-14T12:10:48.985Z,31.00
2023-08-14T12:13:24.555Z,30.93
2023-08-14T12:15:56.291Z,30.88
2023-08-14T12:18:27.992Z,30.91
2023-08-14T12:20:59.910Z,30.99
2023-08-14T12:23:31.915Z,30.96
2023-08-14T12:26:08.924Z,30.74
2023-08-14T12:28:40.746Z,30.87
2023-08-14T12:31:13.347Z,30.94
2023-08-14T12:33:46.975Z,30.76
2023-08-14T12:36:20.714Z,30.30
2023-08-14T12:38:52.406Z,30.33
2023-08-14T12:41:24.238Z,30.15
2023-08-14T12:43:55.908Z,30.18
2023-08-14T12:46:27.677Z,30.39
2023-08-14T12:48:59.234Z,30.67
2023-08-14T12:51:31.545Z,30.73
2023-08-14T12:54:03.120Z,30.75
2023-08-14T12:56:38.115Z,30.57
2023-08-14T12:59:10.164Z,30.51
2023-08-14T13:01:47.502Z,30.53
2023-08-14T13:04:19.605Z,30.57
2023-08-14T13:06:51.684Z,30.62
2023-08-14T13:09:23.245Z,30.20
2023-08-14T13:11:55.037Z,29.95
2023-08-14T13:14:26.573Z,29.94
2023-08-14T13:16:58.271Z,29.75
2023-08-14T13:19:29.931Z,29.75
2023-08-14T13:22:01.593Z,29.40
2023-08-14T13:24:33.111Z,29.34
2023-08-14T13:27:09.525Z,29.33
2023-08-14T13:29:42.005Z,29.23
2023-08-14T13:32:13.790Z,29.00
2023-08-14T13:34:45.385Z,28.90
2023-08-14T13:37:17.183Z,29.02
2023-08-14T13:39:48.809Z,29.17
2023-08-14T13:42:20.583Z,29.37
2023-08-14T13:44:56.173Z,29.47
2023-08-14T13:47:33.490Z,29.47
2023-08-14T13:50:12.079Z,29.65
2023-08-14T13:52:46.886Z,29.93
2023-08-14T13:55:19.507Z,30.05
2023-08-14T13:57:51.231Z,30.01
2023-08-14T14:00:28.019Z,29.80
2023-08-14T14:03:01.692Z,29.75
2023-08-14T14:05:33.516Z,29.64
2023-08-14T14:08:05.647Z,29.53
2023-08-14T14:10:37.476Z,29.41
2023-08-14T14:13:09.357Z,29.28
2023-08-14T14:15:41.749Z,29.09
2023-08-14T14:18:13.555Z,29.09
2023-08-14T14:20:46.701Z,29.05
2023-08-14T14:23:18.364Z,29.11
2023-08-14T14:25:49.908Z,29.35
2023-08-14T14:28:21.639Z,29.60
2023-08-14T14:30:53.193Z,29.71
2023-08-14T14:33:24.775Z,29.72
2023-08-14T14:35:56.334Z,29.79
2023-08-14T14:38:28.302Z,29.95
2023-08-14T14:41:02.292Z,30.01
2023-08-14T14:43:34.219Z,30.20
2023-08-14T14:46:08.794Z,30.34
2023-08-14T14:48:41.174Z,30.31
2023-08-14T14:51:12.735Z,30.22
2023-08-14T14:53:44.529Z,30.24
2023-08-14T14:56:16.095Z,30.24
2023-08-14T14:58:48.419Z,30.16
2023-08-14T15:01:20.093Z,30.08
2023-08-14T15:03:52.059Z,30.09
2023-08-14T15:06:23.618Z,29.81
2023-08-14T15:08:55.163Z,29.74
2023-08-14T15:11:26.766Z,29.62
2023-08-14T15:13:58.482Z,29.19
2023-08-14T15:16:33.044Z,29.09
2023-08-14T15:19:05.282Z,29.24
2023-08-14T15:21:36.872Z,29.22
2023-08-14T15:24:09.714Z,29.28
2023-08-14T15:26:41.382Z,29.37
2023-08-14T15:29:13.509Z,29.42
2023-08-14T15:31:45.285Z,29.33
2023-08-14T15:34:16.928Z,29.30
2023-08-14T15:36:48.562Z,29.24
2023-08-14T15:39:20.178Z,29.28
2023-08-14T15:41:51.741Z,29.22
2023-08-14T15:44:23.485Z,29.18
2023-08-14T15:46:55.346Z,29.10
2023-08-14T15:49:26.933Z,28.93
2023-08-14T15:51:58.462Z,28.86
2023-08-14T15:54:43.044Z,28.79
2023-08-14T15:57:21.833Z,28.70
2023-08-14T15:59:53.951Z,28.79
2023-08-14T16:02:25.546Z,28.79
2023-08-14T16:04:58.223Z,28.66
2023-08-14T16:07:30.248Z,28.54
2023-08-14T16:10:01.815Z,28.30
2023-08-14T16:12:33.530Z,28.13
2023-08-14T16:15:07.464Z,28.01
2023-08-14T16:17:43.084Z,27.97
2023-08-14T16:20:15.421Z,27.89
2023-08-14T16:22:46.953Z,27.75
2023-08-14T16:25:18.606Z,27.65
2023-08-14T16:27:50.157Z,27.63
2023-08-14T16:30:21.682Z,27.71
2023-08-14T16:32:53.412Z,27.82
2023-08-14T16:35:24.949Z,27.92
2023-08-14T16:37:56.446Z,27.90
2023-08-14T16:40:28.674Z,27.99
2023-08-14T16:43:01.277Z,28.06
2023-08-14T16:45:33.020Z,28.10
2023-08-14T16:48:05.094Z,28.25
2023-08-14T16:50:40.132Z,28.24
2023-08-14T16:53:12.456Z,28.18
2023-08-14T16:55:45.034Z,28.18
2023-08-14T16:58:16.934Z,28.20
2023-08-14T17:00:49.336Z,28.30
2023-08-14T17:03:22.615Z,28.33
2023-08-14T17:06:02.445Z,28.42
2023-08-14T17:08:36.448Z,28.33
2023-08-14T17:11:09.308Z,28.05
2023-08-14T17:13:40.887Z,28.11
2023-08-14T17:16:13.648Z,28.24
2023-08-14T17:18:45.637Z,28.37
2023-08-14T17:21:17.231Z,28.60
2023-08-14T17:23:48.816Z,28.78
2023-08-14T17:26:20.695Z,28.89
2023-08-14T17:28:52.203Z,28.86
2023-08-14T17:31:23.916Z,28.83
2023-08-14T17:33:55.610Z,28.80
2023-08-14T17:36:27.558Z,28.75
2023-08-14T17:39:01.418Z,28.76
2023-08-14T17:44:06.285Z,28.87
2023-08-14T17:46:37.985Z,28.92
2023-08-14T17:49:09.565Z,28.79
2023-08-14T17:51:41.066Z,28.72
2023-08-14T17:54:12.808Z,28.56
2023-08-14T17:56:44.671Z,28.56
2023-08-14T17:59:16.120Z,28.52
2023-08-14T18:01:47.730Z,28.33
2023-08-14T18:04:19.290Z,28.14
2023-08-14T18:06:50.895Z,27.99
2023-08-14T18:09:22.358Z,27.90
2023-08-14T18:11:54.101Z,27.93
2023-08-14T18:14:25.653Z,27.88
2023-08-14T18:16:57.205Z,27.78
2023-08-14T18:19:29.930Z,27.72
2023-08-14T18:22:01.739Z,27.69
2023-08-14T18:24:33.499Z,27.62
2023-08-14T18:27:05.827Z,27.53
2023-08-14T18:29:37.416Z,27.40
2023-08-14T18:32:09.541Z,27.28
2023-08-14T18:34:43.794Z,27.11
2023-08-14T18:37:15.744Z,26.85
2023-08-14T18:39:47.356Z,26.78
2023-08-14T18:42:19.266Z,26.76
2023-08-14T18:44:52.718Z,26.70
2023-08-14T18:47:34.189Z,26.62
2023-08-14T18:50:11.687Z,26.50
2023-08-14T18:52:47.345Z,26.37
2023-08-14T18:55:20.086Z,26.26
2023-08-14T18:57:53.731Z,26.19
2023-08-14T19:00:26.463Z,26.07
2023-08-14T19:03:00.352Z,26.02
2023-08-14T19:05:33.117Z,25.98
2023-08-14T19:08:06.910Z,25.89
2023-08-14T19:10:38.468Z,25.82
2023-08-14T19:13:10.025Z,25.80
2023-08-14T19:15:45.324Z,25.71
2023-08-14T19:18:19.698Z,25.65
2023-08-14T19:20:52.406Z,25.62
2023-08-14T19:23:24.014Z,25.47
2023-08-14T19:26:00.206Z,25.45
2023-08-14T19:28:45.437Z,25.39
2023-08-14T19:31:18.601Z,25.22
2023-08-14T19:33:50.631Z,25.10
2023-08-14T19:36:22.237Z,25.04
2023-08-14T19:38:53.928Z,24.99
2023-08-14T19:41:25.449Z,24.96
2023-08-14T19:43:58.124Z,24.90
2023-08-14T19:46:30.303Z,24.85
2023-08-14T19:49:02.416Z,24.81
2023-08-14T19:51:33.905Z,24.77
2023-08-14T19:54:06.134Z,24.71
2023-08-14T19:56:37.670Z,24.69
2023-08-14T19:59:09.754Z,24.70
2023-08-14T20:01:41.355Z,24.65
2023-08-14T20:04:12.987Z,24.59
2023-08-14T20:06:45.086Z,24.50
2023-08-14T20:09:17.718Z,24.42
2023-08-14T20:12:03.800Z,24.36
2023-08-14T20:14:42.002Z,24.28
2023-08-14T20:17:28.518Z,24.26
2023-08-14T20:20:02.916Z,24.16
2023-08-14T20:22:34.519Z,24.09
2023-08-14T20:25:06.994Z,24.02
2023-08-14T20:27:38.636Z,23.92
2023-08-14T20:30:12.187Z,23.86
2023-08-14T20:32:43.935Z,23.82
2023-08-14T20:35:16.091Z,23.78
2023-08-14T20:37:47.748Z,23.77
2023-08-14T20:40:19.676Z,23.75
2023-08-14T20:42:51.142Z,23.70
2023-08-14T20:45:23.714Z,23.63
2023-08-14T20:47:55.573Z,23.53
2023-08-14T20:50:33.829Z,23.46
2023-08-14T20:53:06.006Z,23.40
2023-08-14T20:55:37.774Z,23.39
2023-08-14T20:58:09.834Z,23.39
2023-08-14T21:00:44.708Z,23.30
2023-08-14T21:03:17.364Z,23.29
2023-08-14T21:05:50.285Z,23.31
2023-08-14T21:08:22.529Z,23.30
2023-08-14T21:10:54.562Z,23.26
2023-08-14T21:13:26.885Z,23.17
2023-08-14T21:16:00.676Z,23.11
2023-08-14T21:18:32.222Z,23.07
2023-08-14T21:21:03.760Z,23.03
2023-08-14T21:23:35.226Z,23.00
2023-08-14T21:26:06.668Z,22.98
2023-08-14T21:28:38.151Z,22.97
2023-08-14T21:31:09.806Z,22.95
2023-08-14T21:33:41.369Z,22.98
2023-08-14T21:36:13.010Z,22.96
2023-08-14T21:38:44.754Z,22.91
2023-08-14T21:41:16.393Z,22.80
2023-08-14T21:43:47.913Z,22.75
2023-08-14T21:46:19.538Z,22.71
2023-08-14T21:48:51.301Z,22.68
2023-08-14T21:51:23.753Z,22.70
2023-08-14T21:53:55.613Z,22.73
2023-08-14T21:56:27.103Z,22.69
2023-08-14T21:58:58.624Z,22.63
2023-08-14T22:01:30.314Z,22.59
2023-08-14T22:04:01.832Z,22.54
2023-08-14T22:06:33.440Z,22.52
2023-08-14T22:09:06.440Z,22.51
2023-08-14T22:11:38.224Z,22.47
2023-08-14T22:14:09.773Z,22.44
2023-08-14T22:16:41.392Z,22.38
2023-08-14T22:19:13.322Z,22.34
2023-08-14T22:21:44.876Z,22.31
2023-08-14T22:24:28.547Z,22.33
2023-08-14T22:27:08.546Z,22.32
2023-08-14T22:29:40.074Z,22.31
2023-08-14T22:32:11.682Z,22.27
2023-08-14T22:34:43.153Z,22.20
2023-08-14T22:37:14.661Z,22.13
2023-08-14T22:39:46.281Z,22.05
2023-08-14T22:42:17.967Z,22.03
2023-08-14T22:44:50.407Z,22.08
2023-08-14T22:47:22.280Z,22.13
2023-08-14T22:49:54.205Z,22.14
2023-08-14T22:52:25.863Z,22.08
2023-08-14T22:54:57.295Z,21.97
2023-08-14T22:57:28.772Z,21.95
2023-08-14T23:00:00.267Z,21.93
2023-08-14T23:02:32.094Z,21.92
2023-08-14T23:05:03.826Z,21.88
2023-08-14T23:07:35.501Z,21.87
2023-08-14T23:10:08.731Z,21.86
2023-08-14T23:12:40.375Z,21.86
2023-08-14T23:15:13.724Z,21.90
2023-08-14T23:17:45.275Z,21.88
2023-08-14T23:20:16.844Z,21.80
2023-08-14T23:22:48.486Z,21.78
2023-08-14T23:25:20.158Z,21.76
2023-08-14T23:27:51.716Z,21.75
2023-08-14T23:30:23.241Z,21.73
2023-08-14T23:32:55.023Z,21.71
2023-08-14T23:35:26.713Z,21.73
2023-08-14T23:37:58.388Z,21.70
2023-08-14T23:40:30.059Z,21.60
2023-08-14T23:43:01.832Z,21.51
2023-08-14T23:45:33.279Z,21.56
2023-08-14T23:48:05.476Z,21.60
2023-08-14T23:50:37.335Z,21.59
2023-08-14T23:53:08.907Z,21.54
2023-08-14T23:55:45.121Z,21.52
2023-08-14T23:58:16.791Z,21.50
